sensor_id;sensor_type;location;lat;lon;timestamp;temperature;humidity
16247;DHT22;8231;50.866;7.944;2023-04-26T00:00:29;1.10;99.90
16247;DHT22;8231;50.866;7.944;2023-04-26T00:02:57;1.20;99.90
16247;DHT22;8231;50.866;7.944;2023-04-26T00:05:27;1.20;99.90
16247;DHT22;8231;50.866;7.944;2023-04-26T00:07:56;1.20;99.90
16247;DHT22;8231;50.866;7.944;2023-04-26T00:10:25;1.20;99.90
16247;DHT22;8231;50.866;7.944;2023-04-26T00:12:53;1.20;99.90
16247;DHT22;8231;50.866;7.944;2023-04-26T00:15:21;1.10;99.90
16247;DHT22;8231;50.866;7.944;2023-04-26T00:17:50;1.10;99.90
16247;DHT22;8231;50.866;7.944;2023-04-26T00:20:19;1.10;99.90
16247;DHT22;8231;50.866;7.944;2023-04-26T00:22:47;1.00;99.90
16247;DHT22;8231;50.866;7.944;2023-04-26T00:25:18;1.00;99.90
16247;DHT22;8231;50.866;7.944;2023-04-26T00:27:46;0.90;99.90
16247;DHT22;8231;50.866;7.944;2023-04-26T00:30:14;0.90;99.90
16247;DHT22;8231;50.866;7.944;2023-04-26T00:32:42;0.90;99.90
16247;DHT22;8231;50.866;7.944;2023-04-26T00:35:11;0.80;99.90
16247;DHT22;8231;50.866;7.944;2023-04-26T00:37:39;0.80;99.90
16247;DHT22;8231;50.866;7.944;2023-04-26T00:40:08;0.70;99.90
16247;DHT22;8231;50.866;7.944;2023-04-26T00:42:38;0.70;99.90
16247;DHT22;8231;50.866;7.944;2023-04-26T00:45:08;0.70;99.90
16247;DHT22;8231;50.866;7.944;2023-04-26T00:47:36;0.60;99.90
16247;DHT22;8231;50.866;7.944;2023-04-26T00:50:06;1.10;99.90
16247;DHT22;8231;50.866;7.944;2023-04-26T00:52:36;0.50;99.90
16247;DHT22;8231;50.866;7.944;2023-04-26T00:55:07;0.40;99.90
16247;DHT22;8231;50.866;7.944;2023-04-26T00:57:35;0.40;99.90
16247;DHT22;8231;50.866;7.944;2023-04-26T01:00:06;0.30;99.90
16247;DHT22;8231;50.866;7.944;2023-04-26T01:02:36;0.20;99.90
16247;DHT22;8231;50.866;7.944;2023-04-26T01:05:06;0.20;99.90
16247;DHT22;8231;50.866;7.944;2023-04-26T01:07:36;0.10;99.90
16247;DHT22;8231;50.866;7.944;2023-04-26T01:10:06;0.10;99.90
16247;DHT22;8231;50.866;7.944;2023-04-26T01:12:36;0.00;99.90
16247;DHT22;8231;50.866;7.944;2023-04-26T01:15:07;0.00;99.90
16247;DHT22;8231;50.866;7.944;2023-04-26T01:17:35;0.00;99.90
16247;DHT22;8231;50.866;7.944;2023-04-26T01:20:05;-0.10;99.90
16247;DHT22;8231;50.866;7.944;2023-04-26T01:22:37;-0.20;99.90
16247;DHT22;8231;50.866;7.944;2023-04-26T01:25:06;-0.20;99.90
16247;DHT22;8231;50.866;7.944;2023-04-26T01:27:34;-0.30;99.90
16247;DHT22;8231;50.866;7.944;2023-04-26T01:30:03;-0.30;99.90
16247;DHT22;8231;50.866;7.944;2023-04-26T01:32:31;-0.40;99.90
16247;DHT22;8231;50.866;7.944;2023-04-26T01:35:00;-0.40;99.90
16247;DHT22;8231;50.866;7.944;2023-04-26T01:37:29;-0.40;99.90
16247;DHT22;8231;50.866;7.944;2023-04-26T01:40:00;-0.40;99.90
16247;DHT22;8231;50.866;7.944;2023-04-26T01:42:29;-0.40;99.90
16247;DHT22;8231;50.866;7.944;2023-04-26T01:44:58;-0.40;99.90
16247;DHT22;8231;50.866;7.944;2023-04-26T01:47:46;-0.40;99.90
16247;DHT22;8231;50.866;7.944;2023-04-26T01:50:15;-0.40;99.90
16247;DHT22;8231;50.866;7.944;2023-04-26T01:52:45;-0.40;99.90
16247;DHT22;8231;50.866;7.944;2023-04-26T01:55:15;-0.50;99.90
16247;DHT22;8231;50.866;7.944;2023-04-26T01:57:43;-0.50;99.90
16247;DHT22;8231;50.866;7.944;2023-04-26T02:00:11;-0.60;99.90
16247;DHT22;8231;50.866;7.944;2023-04-26T02:02:40;-0.60;99.90
16247;DHT22;8231;50.866;7.944;2023-04-26T02:05:10;-0.70;99.90
16247;DHT22;8231;50.866;7.944;2023-04-26T02:07:38;-0.70;99.90
16247;DHT22;8231;50.866;7.944;2023-04-26T02:10:07;-0.70;99.90
16247;DHT22;8231;50.866;7.944;2023-04-26T02:12:37;-0.70;99.90
16247;DHT22;8231;50.866;7.944;2023-04-26T02:15:07;-0.70;99.90
16247;DHT22;8231;50.866;7.944;2023-04-26T02:17:36;-0.70;99.90
16247;DHT22;8231;50.866;7.944;2023-04-26T02:20:06;-0.70;99.90
16247;DHT22;8231;50.866;7.944;2023-04-26T02:22:36;-0.60;99.90
16247;DHT22;8231;50.866;7.944;2023-04-26T02:25:06;-0.60;99.90
16247;DHT22;8231;50.866;7.944;2023-04-26T02:27:34;-0.60;99.90
16247;DHT22;8231;50.866;7.944;2023-04-26T02:30:05;-0.60;99.90
16247;DHT22;8231;50.866;7.944;2023-04-26T02:32:33;-0.70;99.90
16247;DHT22;8231;50.866;7.944;2023-04-26T02:35:02;-0.70;99.90
16247;DHT22;8231;50.866;7.944;2023-04-26T02:37:32;-0.70;99.90
16247;DHT22;8231;50.866;7.944;2023-04-26T02:40:00;-0.70;99.90
16247;DHT22;8231;50.866;7.944;2023-04-26T02:42:31;-0.80;99.90
16247;DHT22;8231;50.866;7.944;2023-04-26T02:44:59;-0.80;99.90
16247;DHT22;8231;50.866;7.944;2023-04-26T02:47:28;-0.80;99.90
16247;DHT22;8231;50.866;7.944;2023-04-26T02:49:57;-0.90;99.90
16247;DHT22;8231;50.866;7.944;2023-04-26T02:52:25;-0.90;99.90
16247;DHT22;8231;50.866;7.944;2023-04-26T02:54:54;-1.00;99.90
16247;DHT22;8231;50.866;7.944;2023-04-26T02:57:22;-1.00;99.90
16247;DHT22;8231;50.866;7.944;2023-04-26T02:59:50;-1.00;99.90
16247;DHT22;8231;50.866;7.944;2023-04-26T03:02:19;-1.10;99.90
16247;DHT22;8231;50.866;7.944;2023-04-26T03:04:50;-1.10;99.90
16247;DHT22;8231;50.866;7.944;2023-04-26T03:07:20;-1.10;99.90
16247;DHT22;8231;50.866;7.944;2023-04-26T03:09:48;-1.20;99.90
16247;DHT22;8231;50.866;7.944;2023-04-26T03:12:18;-1.20;99.90
16247;DHT22;8231;50.866;7.944;2023-04-26T03:14:47;-1.30;99.90
16247;DHT22;8231;50.866;7.944;2023-04-26T03:17:16;-1.40;99.90
16247;DHT22;8231;50.866;7.944;2023-04-26T03:19:45;-1.40;99.90
16247;DHT22;8231;50.866;7.944;2023-04-26T03:22:15;-1.40;99.90
16247;DHT22;8231;50.866;7.944;2023-04-26T03:24:44;-1.50;99.90
16247;DHT22;8231;50.866;7.944;2023-04-26T03:27:13;-1.50;99.90
16247;DHT22;8231;50.866;7.944;2023-04-26T03:29:44;-1.50;99.90
16247;DHT22;8231;50.866;7.944;2023-04-26T03:32:12;-1.50;99.90
16247;DHT22;8231;50.866;7.944;2023-04-26T03:34:41;-1.60;99.90
16247;DHT22;8231;50.866;7.944;2023-04-26T03:37:09;-1.60;99.90
16247;DHT22;8231;50.866;7.944;2023-04-26T03:39:40;-1.60;99.90
16247;DHT22;8231;50.866;7.944;2023-04-26T03:42:09;-1.60;99.90
16247;DHT22;8231;50.866;7.944;2023-04-26T03:44:37;-1.70;99.90
16247;DHT22;8231;50.866;7.944;2023-04-26T03:47:06;-1.70;99.90
16247;DHT22;8231;50.866;7.944;2023-04-26T03:49:34;-1.70;99.90
16247;DHT22;8231;50.866;7.944;2023-04-26T03:52:03;-1.70;99.90
16247;DHT22;8231;50.866;7.944;2023-04-26T03:54:32;-1.80;99.90
16247;DHT22;8231;50.866;7.944;2023-04-26T03:57:02;-1.80;99.90
16247;DHT22;8231;50.866;7.944;2023-04-26T03:59:30;-1.80;99.90
16247;DHT22;8231;50.866;7.944;2023-04-26T04:01:58;-1.90;99.90
16247;DHT22;8231;50.866;7.944;2023-04-26T04:04:27;-1.90;99.90
16247;DHT22;8231;50.866;7.944;2023-04-26T04:06:55;-1.90;99.90
16247;DHT22;8231;50.866;7.944;2023-04-26T04:09:24;-1.90;99.90
16247;DHT22;8231;50.866;7.944;2023-04-26T04:11:53;-1.90;99.90
16247;DHT22;8231;50.866;7.944;2023-04-26T04:14:23;-1.90;99.90
16247;DHT22;8231;50.866;7.944;2023-04-26T04:16:51;-1.90;99.90
16247;DHT22;8231;50.866;7.944;2023-04-26T04:19:20;-1.90;99.90
16247;DHT22;8231;50.866;7.944;2023-04-26T04:21:48;-1.90;99.90
16247;DHT22;8231;50.866;7.944;2023-04-26T04:24:18;-1.90;99.90
16247;DHT22;8231;50.866;7.944;2023-04-26T04:26:47;-2.00;99.90
16247;DHT22;8231;50.866;7.944;2023-04-26T04:29:15;-1.90;99.90
16247;DHT22;8231;50.866;7.944;2023-04-26T04:31:44;-1.90;99.90
16247;DHT22;8231;50.866;7.944;2023-04-26T04:34:13;-1.90;99.90
16247;DHT22;8231;50.866;7.944;2023-04-26T04:36:43;-1.90;99.90
16247;DHT22;8231;50.866;7.944;2023-04-26T04:39:12;-1.90;99.90
16247;DHT22;8231;50.866;7.944;2023-04-26T04:41:43;-1.90;99.90
16247;DHT22;8231;50.866;7.944;2023-04-26T04:44:16;-1.90;99.90
16247;DHT22;8231;50.866;7.944;2023-04-26T04:46:46;-1.80;99.90
16247;DHT22;8231;50.866;7.944;2023-04-26T04:49:14;-1.80;99.90
16247;DHT22;8231;50.866;7.944;2023-04-26T04:51:44;-1.80;99.90
16247;DHT22;8231;50.866;7.944;2023-04-26T04:54:14;-1.70;99.90
16247;DHT22;8231;50.866;7.944;2023-04-26T04:56:45;-1.70;99.90
16247;DHT22;8231;50.866;7.944;2023-04-26T04:59:15;-1.60;99.90
16247;DHT22;8231;50.866;7.944;2023-04-26T05:01:45;-1.00;99.90
16247;DHT22;8231;50.866;7.944;2023-04-26T05:04:15;-1.50;99.90
16247;DHT22;8231;50.866;7.944;2023-04-26T05:06:43;-1.40;99.90
16247;DHT22;8231;50.866;7.944;2023-04-26T05:09:12;-1.20;99.90
16247;DHT22;8231;50.866;7.944;2023-04-26T05:11:40;-0.90;99.90
16247;DHT22;8231;50.866;7.944;2023-04-26T05:14:10;-0.60;99.90
16247;DHT22;8231;50.866;7.944;2023-04-26T05:16:38;-0.40;99.90
16247;DHT22;8231;50.866;7.944;2023-04-26T05:19:09;0.00;99.90
16247;DHT22;8231;50.866;7.944;2023-04-26T05:21:39;0.00;99.90
16247;DHT22;8231;50.866;7.944;2023-04-26T05:24:08;0.40;99.90
16247;DHT22;8231;50.866;7.944;2023-04-26T05:26:36;0.90;99.90
16247;DHT22;8231;50.866;7.944;2023-04-26T05:29:40;1.40;99.90
16247;DHT22;8231;50.866;7.944;2023-04-26T05:32:24;2.10;99.90
16247;DHT22;8231;50.866;7.944;2023-04-26T05:35:12;2.70;99.90
16247;DHT22;8231;50.866;7.944;2023-04-26T05:37:40;3.10;99.90
16247;DHT22;8231;50.866;7.944;2023-04-26T05:40:09;3.60;99.90
16247;DHT22;8231;50.866;7.944;2023-04-26T05:42:39;4.10;99.90
16247;DHT22;8231;50.866;7.944;2023-04-26T05:45:09;4.60;99.90
16247;DHT22;8231;50.866;7.944;2023-04-26T05:47:38;5.20;99.90
16247;DHT22;8231;50.866;7.944;2023-04-26T05:50:08;5.70;99.90
16247;DHT22;8231;50.866;7.944;2023-04-26T05:52:38;6.10;99.90
16247;DHT22;8231;50.866;7.944;2023-04-26T05:55:07;6.70;99.90
16247;DHT22;8231;50.866;7.944;2023-04-26T05:57:36;7.00;99.90
16247;DHT22;8231;50.866;7.944;2023-04-26T06:00:07;7.50;99.90
16247;DHT22;8231;50.866;7.944;2023-04-26T06:02:42;7.90;99.90
16247;DHT22;8231;50.866;7.944;2023-04-26T06:05:16;8.30;99.90
16247;DHT22;8231;50.866;7.944;2023-04-26T06:07:47;8.50;99.90
16247;DHT22;8231;50.866;7.944;2023-04-26T06:10:17;8.70;99.90
16247;DHT22;8231;50.866;7.944;2023-04-26T06:12:45;8.70;99.90
16247;DHT22;8231;50.866;7.944;2023-04-26T06:15:15;8.70;99.90
16247;DHT22;8231;50.866;7.944;2023-04-26T06:17:44;8.40;99.90
16247;DHT22;8231;50.866;7.944;2023-04-26T06:20:12;8.10;99.90
16247;DHT22;8231;50.866;7.944;2023-04-26T06:22:40;7.60;99.90
16247;DHT22;8231;50.866;7.944;2023-04-26T06:25:11;7.50;99.90
16247;DHT22;8231;50.866;7.944;2023-04-26T06:27:39;7.60;99.90
16247;DHT22;8231;50.866;7.944;2023-04-26T06:30:10;8.00;99.90
16247;DHT22;8231;50.866;7.944;2023-04-26T06:32:42;8.60;99.90
16247;DHT22;8231;50.866;7.944;2023-04-26T06:35:11;9.50;99.90
16247;DHT22;8231;50.866;7.944;2023-04-26T06:37:40;10.10;99.90
16247;DHT22;8231;50.866;7.944;2023-04-26T06:40:11;10.50;99.90
16247;DHT22;8231;50.866;7.944;2023-04-26T06:42:42;11.20;99.90
16247;DHT22;8231;50.866;7.944;2023-04-26T06:45:24;11.60;99.90
16247;DHT22;8231;50.866;7.944;2023-04-26T06:47:53;11.90;99.90
16247;DHT22;8231;50.866;7.944;2023-04-26T06:50:23;12.30;99.90
16247;DHT22;8231;50.866;7.944;2023-04-26T06:52:52;12.90;99.90
16247;DHT22;8231;50.866;7.944;2023-04-26T06:55:22;13.40;99.90
16247;DHT22;8231;50.866;7.944;2023-04-26T06:57:50;14.00;99.90
16247;DHT22;8231;50.866;7.944;2023-04-26T07:00:19;14.50;99.90
16247;DHT22;8231;50.866;7.944;2023-04-26T07:02:47;14.70;99.60
16247;DHT22;8231;50.866;7.944;2023-04-26T07:05:17;15.10;98.30
16247;DHT22;8231;50.866;7.944;2023-04-26T07:07:45;15.30;97.10
16247;DHT22;8231;50.866;7.944;2023-04-26T07:10:13;15.30;94.80
16247;DHT22;8231;50.866;7.944;2023-04-26T07:12:43;15.20;96.70
16247;DHT22;8231;50.866;7.944;2023-04-26T07:15:11;15.80;95.80
16247;DHT22;8231;50.866;7.944;2023-04-26T07:17:40;16.20;95.30
16247;DHT22;8231;50.866;7.944;2023-04-26T07:20:08;16.70;94.40
16247;DHT22;8231;50.866;7.944;2023-04-26T07:22:38;16.30;92.90
16247;DHT22;8231;50.866;7.944;2023-04-26T07:25:06;15.50;92.80
16247;DHT22;8231;50.866;7.944;2023-04-26T07:27:35;14.90;93.10
16247;DHT22;8231;50.866;7.944;2023-04-26T07:30:06;14.20;92.70
16247;DHT22;8231;50.866;7.944;2023-04-26T07:32:34;13.70;94.00
16247;DHT22;8231;50.866;7.944;2023-04-26T07:35:05;13.30;94.60
16247;DHT22;8231;50.866;7.944;2023-04-26T07:37:34;13.10;94.60
16247;DHT22;8231;50.866;7.944;2023-04-26T07:40:02;13.90;95.10
16247;DHT22;8231;50.866;7.944;2023-04-26T07:42:31;14.60;93.50
16247;DHT22;8231;50.866;7.944;2023-04-26T07:44:59;15.00;92.70
16247;DHT22;8231;50.866;7.944;2023-04-26T07:47:29;14.50;92.90
16247;DHT22;8231;50.866;7.944;2023-04-26T07:49:58;13.90;93.10
16247;DHT22;8231;50.866;7.944;2023-04-26T07:52:26;13.30;94.30
16247;DHT22;8231;50.866;7.944;2023-04-26T07:54:54;12.90;95.00
16247;DHT22;8231;50.866;7.944;2023-04-26T07:57:22;12.80;95.40
16247;DHT22;8231;50.866;7.944;2023-04-26T07:59:51;12.60;95.50
16247;DHT22;8231;50.866;7.944;2023-04-26T08:02:19;12.40;96.00
16247;DHT22;8231;50.866;7.944;2023-04-26T08:04:54;12.20;95.30
16247;DHT22;8231;50.866;7.944;2023-04-26T08:07:23;11.90;94.70
16247;DHT22;8231;50.866;7.944;2023-04-26T08:09:52;11.30;93.60
16247;DHT22;8231;50.866;7.944;2023-04-26T08:12:21;10.80;95.30
16247;DHT22;8231;50.866;7.944;2023-04-26T08:14:49;11.20;96.30
16247;DHT22;8231;50.866;7.944;2023-04-26T08:17:17;11.90;95.00
16247;DHT22;8231;50.866;7.944;2023-04-26T08:19:45;12.60;94.10
16247;DHT22;8231;50.866;7.944;2023-04-26T08:22:15;12.80;93.40
16247;DHT22;8231;50.866;7.944;2023-04-26T08:24:46;13.10;93.00
16247;DHT22;8231;50.866;7.944;2023-04-26T08:27:15;13.10;92.80
16247;DHT22;8231;50.866;7.944;2023-04-26T08:30:07;12.40;91.10
16247;DHT22;8231;50.866;7.944;2023-04-26T08:32:35;11.80;93.10
16247;DHT22;8231;50.866;7.944;2023-04-26T08:35:04;11.60;94.40
16247;DHT22;8231;50.866;7.944;2023-04-26T08:37:34;11.40;93.60
16247;DHT22;8231;50.866;7.944;2023-04-26T08:40:04;11.30;93.70
16247;DHT22;8231;50.866;7.944;2023-04-26T08:42:38;11.30;91.50
16247;DHT22;8231;50.866;7.944;2023-04-26T08:45:08;11.00;90.40
16247;DHT22;8231;50.866;7.944;2023-04-26T08:47:41;10.80;92.10
16247;DHT22;8231;50.866;7.944;2023-04-26T08:50:13;11.00;91.80
16247;DHT22;8231;50.866;7.944;2023-04-26T08:52:43;11.20;93.00
16247;DHT22;8231;50.866;7.944;2023-04-26T08:55:12;11.90;91.60
16247;DHT22;8231;50.866;7.944;2023-04-26T08:57:42;12.40;91.40
16247;DHT22;8231;50.866;7.944;2023-04-26T09:00:13;12.90;91.00
16247;DHT22;8231;50.866;7.944;2023-04-26T09:02:45;12.90;90.10
16247;DHT22;8231;50.866;7.944;2023-04-26T09:05:14;12.70;89.90
16247;DHT22;8231;50.866;7.944;2023-04-26T09:07:45;11.80;89.60
16247;DHT22;8231;50.866;7.944;2023-04-26T09:10:18;11.40;90.40
16247;DHT22;8231;50.866;7.944;2023-04-26T09:12:50;11.00;90.40
16247;DHT22;8231;50.866;7.944;2023-04-26T09:15:20;11.10;92.40
16247;DHT22;8231;50.866;7.944;2023-04-26T09:17:49;11.20;90.60
16247;DHT22;8231;50.866;7.944;2023-04-26T09:20:20;10.80;90.50
16247;DHT22;8231;50.866;7.944;2023-04-26T09:22:51;10.80;91.00
16247;DHT22;8231;50.866;7.944;2023-04-26T09:25:27;11.00;92.20
16247;DHT22;8231;50.866;7.944;2023-04-26T09:27:57;11.20;91.40
16247;DHT22;8231;50.866;7.944;2023-04-26T09:30:26;11.40;91.40
16247;DHT22;8231;50.866;7.944;2023-04-26T09:32:56;11.60;91.20
16247;DHT22;8231;50.866;7.944;2023-04-26T09:35:29;11.90;91.40
16247;DHT22;8231;50.866;7.944;2023-04-26T09:38:00;12.20;92.60
16247;DHT22;8231;50.866;7.944;2023-04-26T09:40:38;12.40;88.80
16247;DHT22;8231;50.866;7.944;2023-04-26T09:43:09;12.30;87.60
16247;DHT22;8231;50.866;7.944;2023-04-26T09:45:45;12.30;90.30
16247;DHT22;8231;50.866;7.944;2023-04-26T09:48:17;12.10;84.80
16247;DHT22;8231;50.866;7.944;2023-04-26T09:50:49;11.70;84.60
16247;DHT22;8231;50.866;7.944;2023-04-26T09:53:28;11.70;90.00
16247;DHT22;8231;50.866;7.944;2023-04-26T09:56:05;11.80;90.50
16247;DHT22;8231;50.866;7.944;2023-04-26T09:58:35;11.60;91.50
16247;DHT22;8231;50.866;7.944;2023-04-26T10:01:05;11.50;88.10
16247;DHT22;8231;50.866;7.944;2023-04-26T10:03:34;11.70;91.30
16247;DHT22;8231;50.866;7.944;2023-04-26T10:06:04;12.20;90.90
16247;DHT22;8231;50.866;7.944;2023-04-26T10:08:34;12.60;90.40
16247;DHT22;8231;50.866;7.944;2023-04-26T10:11:03;12.70;86.90
16247;DHT22;8231;50.866;7.944;2023-04-26T10:13:33;12.70;89.90
16247;DHT22;8231;50.866;7.944;2023-04-26T10:16:02;12.60;90.90
16247;DHT22;8231;50.866;7.944;2023-04-26T10:18:31;12.50;89.60
16247;DHT22;8231;50.866;7.944;2023-04-26T10:21:14;12.30;89.10
16247;DHT22;8231;50.866;7.944;2023-04-26T10:23:44;12.20;89.90
16247;DHT22;8231;50.866;7.944;2023-04-26T10:26:48;12.30;90.30
16247;DHT22;8231;50.866;7.944;2023-04-26T10:30:05;12.30;88.50
16247;DHT22;8231;50.866;7.944;2023-04-26T10:36:02;11.80;88.10
16247;DHT22;8231;50.866;7.944;2023-04-26T10:38:31;12.10;90.00
16247;DHT22;8231;50.866;7.944;2023-04-26T10:41:29;11.90;87.30
16247;DHT22;8231;50.866;7.944;2023-04-26T10:44:00;12.10;89.90
16247;DHT22;8231;50.866;7.944;2023-04-26T10:46:49;12.30;87.60
16247;DHT22;8231;50.866;7.944;2023-04-26T10:49:19;12.60;88.20
16247;DHT22;8231;50.866;7.944;2023-04-26T10:52:08;12.60;84.50
16247;DHT22;8231;50.866;7.944;2023-04-26T10:54:46;12.70;86.60
16247;DHT22;8231;50.866;7.944;2023-04-26T10:57:15;12.90;85.30
16247;DHT22;8231;50.866;7.944;2023-04-26T11:00:15;13.10;86.60
16247;DHT22;8231;50.866;7.944;2023-04-26T11:02:46;13.20;86.20
16247;DHT22;8231;50.866;7.944;2023-04-26T11:05:33;12.80;84.20
16247;DHT22;8231;50.866;7.944;2023-04-26T11:08:03;12.70;83.00
16247;DHT22;8231;50.866;7.944;2023-04-26T11:10:31;12.70;86.80
16247;DHT22;8231;50.866;7.944;2023-04-26T11:13:04;12.90;86.20
16247;DHT22;8231;50.866;7.944;2023-04-26T11:15:33;13.30;81.40
16247;DHT22;8231;50.866;7.944;2023-04-26T11:18:02;13.60;83.00
16247;DHT22;8231;50.866;7.944;2023-04-26T11:20:31;13.60;79.60
16247;DHT22;8231;50.866;7.944;2023-04-26T11:23:00;13.50;78.50
16247;DHT22;8231;50.866;7.944;2023-04-26T11:25:28;13.30;78.80
16247;DHT22;8231;50.866;7.944;2023-04-26T11:28:00;13.30;79.30
16247;DHT22;8231;50.866;7.944;2023-04-26T11:30:30;13.40;77.10
16247;DHT22;8231;50.866;7.944;2023-04-26T11:32:59;13.70;77.10
16247;DHT22;8231;50.866;7.944;2023-04-26T11:35:28;13.90;74.30
16247;DHT22;8231;50.866;7.944;2023-04-26T11:37:58;13.80;79.60
16247;DHT22;8231;50.866;7.944;2023-04-26T11:40:28;14.10;80.40
16247;DHT22;8231;50.866;7.944;2023-04-26T11:43:00;14.70;75.70
16247;DHT22;8231;50.866;7.944;2023-04-26T11:45:32;14.80;73.90
16247;DHT22;8231;50.866;7.944;2023-04-26T11:48:03;15.10;77.70
16247;DHT22;8231;50.866;7.944;2023-04-26T11:50:33;15.50;75.70
16247;DHT22;8231;50.866;7.944;2023-04-26T11:53:03;15.60;73.90
16247;DHT22;8231;50.866;7.944;2023-04-26T11:55:32;15.80;74.10
16247;DHT22;8231;50.866;7.944;2023-04-26T11:58:09;16.00;72.90
16247;DHT22;8231;50.866;7.944;2023-04-26T12:00:57;16.50;73.90
16247;DHT22;8231;50.866;7.944;2023-04-26T12:03:30;17.00;70.80
16247;DHT22;8231;50.866;7.944;2023-04-26T12:05:59;17.20;69.10
16247;DHT22;8231;50.866;7.944;2023-04-26T12:08:28;17.60;67.00
16247;DHT22;8231;50.866;7.944;2023-04-26T12:10:58;17.80;65.10
16247;DHT22;8231;50.866;7.944;2023-04-26T12:13:27;17.30;64.00
16247;DHT22;8231;50.866;7.944;2023-04-26T12:15:57;17.20;65.50
16247;DHT22;8231;50.866;7.944;2023-04-26T12:18:30;17.00;62.30
16247;DHT22;8231;50.866;7.944;2023-04-26T12:20:59;17.10;67.80
16247;DHT22;8231;50.866;7.944;2023-04-26T12:23:37;16.90;61.30
16247;DHT22;8231;50.866;7.944;2023-04-26T12:26:06;16.80;63.10
16247;DHT22;8231;50.866;7.944;2023-04-26T12:28:37;16.70;65.20
16247;DHT22;8231;50.866;7.944;2023-04-26T12:31:06;16.80;65.10
16247;DHT22;8231;50.866;7.944;2023-04-26T12:33:35;17.00;61.80
16247;DHT22;8231;50.866;7.944;2023-04-26T12:36:08;16.90;61.80
16247;DHT22;8231;50.866;7.944;2023-04-26T12:38:37;17.10;61.40
16247;DHT22;8231;50.866;7.944;2023-04-26T12:41:05;17.10;62.10
16247;DHT22;8231;50.866;7.944;2023-04-26T12:43:33;17.10;62.80
16247;DHT22;8231;50.866;7.944;2023-04-26T12:46:02;16.90;60.20
16247;DHT22;8231;50.866;7.944;2023-04-26T12:48:32;16.90;60.10
16247;DHT22;8231;50.866;7.944;2023-04-26T12:51:01;16.90;59.00
16247;DHT22;8231;50.866;7.944;2023-04-26T12:53:30;16.90;62.00
16247;DHT22;8231;50.866;7.944;2023-04-26T12:55:59;17.00;62.50
16247;DHT22;8231;50.866;7.944;2023-04-26T12:58:28;17.00;61.30
16247;DHT22;8231;50.866;7.944;2023-04-26T13:00:56;17.00;62.30
16247;DHT22;8231;50.866;7.944;2023-04-26T13:03:24;16.90;61.30
16247;DHT22;8231;50.866;7.944;2023-04-26T13:05:54;16.80;62.50
16247;DHT22;8231;50.866;7.944;2023-04-26T13:08:22;16.80;60.40
16247;DHT22;8231;50.866;7.944;2023-04-26T13:10:51;16.40;59.50
16247;DHT22;8231;50.866;7.944;2023-04-26T13:13:19;16.20;60.80
16247;DHT22;8231;50.866;7.944;2023-04-26T13:15:58;15.90;62.90
16247;DHT22;8231;50.866;7.944;2023-04-26T13:18:26;16.00;62.20
16247;DHT22;8231;50.866;7.944;2023-04-26T13:20:56;15.80;60.00
16247;DHT22;8231;50.866;7.944;2023-04-26T13:23:24;15.60;62.70
16247;DHT22;8231;50.866;7.944;2023-04-26T13:25:52;15.50;61.10
16247;DHT22;8231;50.866;7.944;2023-04-26T13:28:21;15.40;60.10
16247;DHT22;8231;50.866;7.944;2023-04-26T13:30:49;15.20;60.00
16247;DHT22;8231;50.866;7.944;2023-04-26T13:33:20;15.00;61.10
16247;DHT22;8231;50.866;7.944;2023-04-26T13:35:48;15.10;60.70
16247;DHT22;8231;50.866;7.944;2023-04-26T13:38:18;15.20;61.60
16247;DHT22;8231;50.866;7.944;2023-04-26T13:40:46;15.60;63.80
16247;DHT22;8231;50.866;7.944;2023-04-26T13:43:14;15.90;60.80
16247;DHT22;8231;50.866;7.944;2023-04-26T13:45:42;15.90;59.40
16247;DHT22;8231;50.866;7.944;2023-04-26T13:48:10;15.90;61.00
16247;DHT22;8231;50.866;7.944;2023-04-26T13:50:39;16.10;60.50
16247;DHT22;8231;50.866;7.944;2023-04-26T13:53:07;16.20;59.00
16247;DHT22;8231;50.866;7.944;2023-04-26T13:55:37;16.20;57.90
16247;DHT22;8231;50.866;7.944;2023-04-26T13:58:05;16.30;59.50
16247;DHT22;8231;50.866;7.944;2023-04-26T14:00:51;16.20;60.70
16247;DHT22;8231;50.866;7.944;2023-04-26T14:03:19;16.20;59.60
16247;DHT22;8231;50.866;7.944;2023-04-26T14:05:48;16.40;58.50
16247;DHT22;8231;50.866;7.944;2023-04-26T14:08:17;15.70;54.90
16247;DHT22;8231;50.866;7.944;2023-04-26T14:10:46;15.50;59.10
16247;DHT22;8231;50.866;7.944;2023-04-26T14:13:14;15.60;56.40
16247;DHT22;8231;50.866;7.944;2023-04-26T14:15:43;15.40;57.30
16247;DHT22;8231;50.866;7.944;2023-04-26T14:18:11;15.50;58.60
16247;DHT22;8231;50.866;7.944;2023-04-26T14:20:40;15.70;58.70
16247;DHT22;8231;50.866;7.944;2023-04-26T14:23:08;15.70;59.50
16247;DHT22;8231;50.866;7.944;2023-04-26T14:25:36;15.40;58.20
16247;DHT22;8231;50.866;7.944;2023-04-26T14:28:06;15.20;57.80
16247;DHT22;8231;50.866;7.944;2023-04-26T14:30:35;15.20;59.20
16247;DHT22;8231;50.866;7.944;2023-04-26T14:33:03;15.40;61.70
16247;DHT22;8231;50.866;7.944;2023-04-26T14:35:31;15.30;61.20
16247;DHT22;8231;50.866;7.944;2023-04-26T14:38:00;15.10;61.20
16247;DHT22;8231;50.866;7.944;2023-04-26T14:40:28;14.80;58.30
16247;DHT22;8231;50.866;7.944;2023-04-26T14:42:57;14.80;59.70
16247;DHT22;8231;50.866;7.944;2023-04-26T14:45:27;14.80;59.40
16247;DHT22;8231;50.866;7.944;2023-04-26T14:48:10;14.80;58.60
16247;DHT22;8231;50.866;7.944;2023-04-26T14:50:38;14.80;57.50
16247;DHT22;8231;50.866;7.944;2023-04-26T14:53:07;14.90;60.60
16247;DHT22;8231;50.866;7.944;2023-04-26T14:55:35;14.90;59.50
16247;DHT22;8231;50.866;7.944;2023-04-26T14:58:04;14.80;61.00
16247;DHT22;8231;50.866;7.944;2023-04-26T15:00:33;14.70;58.80
16247;DHT22;8231;50.866;7.944;2023-04-26T15:03:02;14.30;58.50
16247;DHT22;8231;50.866;7.944;2023-04-26T15:05:30;14.20;61.80
16247;DHT22;8231;50.866;7.944;2023-04-26T15:07:59;14.20;60.90
16247;DHT22;8231;50.866;7.944;2023-04-26T15:10:27;14.10;62.10
16247;DHT22;8231;50.866;7.944;2023-04-26T15:12:55;14.00;62.80
16247;DHT22;8231;50.866;7.944;2023-04-26T15:15:23;14.00;63.70
16247;DHT22;8231;50.866;7.944;2023-04-26T15:17:53;13.90;60.20
16247;DHT22;8231;50.866;7.944;2023-04-26T15:20:21;13.80;60.40
16247;DHT22;8231;50.866;7.944;2023-04-26T15:22:50;13.80;61.00
16247;DHT22;8231;50.866;7.944;2023-04-26T15:25:18;13.80;62.70
16247;DHT22;8231;50.866;7.944;2023-04-26T15:27:47;13.90;62.70
16247;DHT22;8231;50.866;7.944;2023-04-26T15:30:18;14.10;62.00
16247;DHT22;8231;50.866;7.944;2023-04-26T15:32:47;14.10;63.10
16247;DHT22;8231;50.866;7.944;2023-04-26T15:35:17;14.10;62.80
16247;DHT22;8231;50.866;7.944;2023-04-26T15:37:45;14.30;64.20
16247;DHT22;8231;50.866;7.944;2023-04-26T15:40:13;14.40;62.30
16247;DHT22;8231;50.866;7.944;2023-04-26T15:42:42;14.40;60.50
16247;DHT22;8231;50.866;7.944;2023-04-26T15:45:11;14.20;61.00
16247;DHT22;8231;50.866;7.944;2023-04-26T15:47:39;14.40;60.60
16247;DHT22;8231;50.866;7.944;2023-04-26T15:50:08;14.10;60.90
16247;DHT22;8231;50.866;7.944;2023-04-26T15:52:38;14.30;62.60
16247;DHT22;8231;50.866;7.944;2023-04-26T15:55:06;14.50;61.70
16247;DHT22;8231;50.866;7.944;2023-04-26T15:57:35;14.30;61.70
16247;DHT22;8231;50.866;7.944;2023-04-26T16:00:05;14.20;62.20
16247;DHT22;8231;50.866;7.944;2023-04-26T16:02:35;14.20;62.30
16247;DHT22;8231;50.866;7.944;2023-04-26T16:05:04;14.00;62.50
16247;DHT22;8231;50.866;7.944;2023-04-26T16:07:34;13.90;62.80
16247;DHT22;8231;50.866;7.944;2023-04-26T16:10:08;13.70;63.30